createdAt,value
2023-05-01T00:00:14.310Z,78.91
2023-05-01T00:02:46.449Z,77.82
2023-05-01T00:05:14.324Z,78.73
2023-05-01T00:07:42.118Z,79.02
2023-05-01T00:10:10.191Z,79.61
2023-05-01T00:12:38.098Z,80.13
2023-05-01T00:15:08.893Z,79.68
2023-05-01T00:17:36.686Z,80.79
2023-05-01T00:20:05.372Z,79.85
2023-05-01T00:22:33.205Z,80.82
2023-05-01T00:25:01.091Z,80.00
2023-05-01T00:27:28.969Z,80.63
2023-05-01T00:29:56.963Z,79.81
2023-05-01T00:32:26.494Z,80.81
2023-05-01T00:34:54.792Z,81.54
2023-05-01T00:37:22.651Z,81.77
2023-05-01T00:39:50.884Z,81.98
2023-05-01T00:42:18.741Z,80.74
2023-05-01T00:44:46.568Z,81.36
2023-05-01T00:47:14.677Z,81.78
2023-05-01T00:49:45.055Z,81.69
2023-05-01T00:52:13.219Z,82.07
2023-05-01T00:54:41.964Z,82.17
2023-05-01T00:57:10.589Z,82.83
2023-05-01T00:59:39.371Z,83.58
2023-05-01T01:02:07.236Z,83.71
2023-05-01T01:04:35.601Z,81.60
2023-05-01T01:07:13.110Z,80.72
2023-05-01T01:09:53.830Z,80.34
2023-05-01T01:12:28.271Z,79.75
2023-05-01T01:15:03.555Z,80.16
2023-05-01T01:17:37.742Z,79.33
2023-05-01T01:20:20.296Z,79.54
2023-05-01T01:23:01.793Z,79.46
2023-05-01T01:26:11.121Z,81.18
2023-05-01T01:29:04.713Z,80.89
2023-05-01T01:31:41.379Z,80.91
2023-05-01T01:34:18.607Z,81.90
2023-05-01T01:36:50.653Z,84.06
2023-05-01T01:39:28.394Z,84.02
2023-05-01T01:41:59.052Z,82.38
2023-05-01T01:44:34.849Z,84.07
2023-05-01T01:47:07.213Z,83.74
2023-05-01T01:49:39.426Z,84.45
2023-05-01T01:52:09.025Z,84.51
2023-05-01T01:54:41.490Z,83.16
2023-05-01T01:57:12.239Z,79.67
2023-05-01T01:59:42.588Z,78.37
2023-05-01T02:02:11.380Z,77.72
2023-05-01T02:04:43.287Z,77.88
2023-05-01T02:07:14.265Z,77.37
2023-05-01T02:09:43.615Z,77.24
2023-05-01T02:12:13.215Z,77.46
2023-05-01T02:14:43.300Z,76.92
2023-05-01T02:17:11.493Z,76.87
2023-05-01T02:19:41.667Z,76.70
2023-05-01T02:22:11.076Z,76.40
2023-05-01T02:24:41.379Z,76.17
2023-05-01T02:27:16.496Z,76.61
2023-05-01T02:29:44.356Z,76.21
2023-05-01T02:32:12.390Z,75.51
2023-05-01T02:34:42.058Z,75.60
2023-05-01T02:37:12.575Z,75.15
2023-05-01T02:39:42.153Z,74.59
2023-05-01T02:42:12.734Z,74.93
2023-05-01T02:44:44.385Z,74.80
2023-05-01T02:47:17.555Z,74.51
2023-05-01T02:49:48.119Z,74.59
2023-05-01T02:52:17.786Z,74.38
2023-05-01T02:54:47.861Z,74.54
2023-05-01T02:57:18.161Z,75.38
2023-05-01T02:59:46.026Z,74.74
2023-05-01T03:02:13.994Z,75.07
2023-05-01T03:04:42.256Z,74.44
2023-05-01T03:07:11.447Z,74.75
2023-05-01T03:09:39.331Z,74.94
2023-05-01T03:12:07.430Z,75.21
2023-05-01T03:14:35.377Z,74.70
2023-05-01T03:17:03.353Z,74.88
2023-05-01T03:19:31.182Z,74.72
2023-05-01T03:21:59.351Z,73.70
2023-05-01T03:24:28.533Z,73.95
2023-05-01T03:26:56.596Z,74.87
2023-05-01T03:29:24.530Z,74.41
2023-05-01T03:31:52.477Z,74.42
2023-05-01T03:34:20.388Z,74.43
2023-05-01T03:36:48.246Z,74.53
2023-05-01T03:39:16.187Z,74.53
2023-05-01T03:42:04.249Z,75.26
2023-05-01T03:44:37.778Z,75.09
2023-05-01T03:47:05.852Z,75.40
2023-05-01T03:49:38.744Z,75.54
2023-05-01T03:52:06.944Z,75.74
2023-05-01T03:54:34.869Z,75.56
2023-05-01T03:57:15.749Z,74.73
2023-05-01T03:59:44.772Z,75.17
2023-05-01T04:02:13.543Z,74.08
2023-05-01T04:04:41.493Z,74.41
2023-05-01T04:07:09.467Z,74.91
2023-05-01T04:09:37.350Z,74.76
2023-05-01T04:12:05.788Z,75.24
2023-05-01T04:14:35.701Z,75.01
2023-05-01T04:17:03.951Z,75.15
2023-05-01T04:19:35.884Z,74.63
2023-05-01T04:22:03.836Z,75.06
2023-05-01T04:24:33.389Z,74.97
2023-05-01T04:27:01.186Z,74.66
2023-05-01T04:29:29.028Z,75.21
2023-05-01T04:31:59.537Z,75.29
2023-05-01T04:34:29.522Z,75.21
2023-05-01T04:36:58.205Z,75.40
2023-05-01T04:39:26.129Z,75.35
2023-05-01T04:41:54.860Z,75.25
2023-05-01T04:44:22.860Z,75.12
2023-05-01T04:46:50.706Z,75.08
2023-05-01T04:49:19.885Z,75.00
2023-05-01T04:51:48.071Z,75.41
2023-05-01T04:54:18.177Z,75.38
2023-05-01T04:56:47.361Z,74.88
2023-05-01T04:59:15.202Z,75.28
2023-05-01T05:01:43.023Z,75.39
2023-05-01T05:04:11.245Z,74.47
2023-05-01T05:06:40.752Z,74.03
2023-05-01T05:09:14.225Z,73.73
2023-05-01T05:11:42.376Z,73.38
2023-05-01T05:14:15.198Z,73.86
2023-05-01T05:16:43.154Z,73.93
2023-05-01T05:19:11.104Z,74.04
2023-05-01T05:21:44.081Z,72.45
2023-05-01T05:24:11.961Z,72.52
2023-05-01T05:26:39.758Z,72.44
2023-05-01T05:29:07.589Z,72.77
2023-05-01T05:31:35.545Z,72.13
2023-05-01T05:34:03.580Z,71.76
2023-05-01T05:36:31.553Z,71.96
2023-05-01T05:39:01.773Z,71.53
2023-05-01T05:41:29.788Z,70.94
2023-05-01T05:44:00.850Z,70.73
2023-05-01T05:46:29.178Z,70.40
2023-05-01T05:48:57.119Z,70.09
2023-05-01T05:51:26.581Z,70.03
2023-05-01T05:53:54.437Z,69.64
2023-05-01T05:56:24.432Z,69.91
2023-05-01T05:58:52.772Z,69.25
2023-05-01T06:01:21.113Z,69.01
2023-05-01T06:03:49.175Z,69.50
2023-05-01T06:06:17.611Z,68.86
2023-05-01T06:08:46.247Z,68.09
2023-05-01T06:11:14.151Z,67.85
2023-05-01T06:13:43.465Z,66.88
2023-05-01T06:16:11.351Z,67.05
2023-05-01T06:18:39.356Z,66.93
2023-05-01T06:21:07.215Z,67.14
2023-05-01T06:23:35.726Z,66.21
2023-05-01T06:26:24.709Z,65.79
2023-05-01T06:28:54.489Z,65.86
2023-05-01T06:31:22.429Z,65.19
2023-05-01T06:33:55.056Z,65.16
2023-05-01T06:36:31.354Z,65.81
2023-05-01T06:38:59.230Z,65.70
2023-05-01T06:41:27.519Z,65.71
2023-05-01T06:43:56.838Z,65.51
2023-05-01T06:46:24.677Z,65.37
2023-05-01T06:48:52.508Z,65.44
2023-05-01T06:51:20.452Z,64.31
2023-05-01T06:53:48.260Z,64.17
2023-05-01T06:56:16.149Z,64.41
2023-05-01T06:58:43.990Z,64.11
2023-05-01T07:01:13.207Z,62.96
2023-05-01T07:03:41.288Z,62.60
2023-05-01T07:06:09.189Z,61.95
2023-05-01T07:08:37.025Z,62.87
2023-05-01T07:11:04.857Z,61.84
2023-05-01T07:13:32.861Z,62.47
2023-05-01T07:16:02.360Z,60.77
2023-05-01T07:18:31.647Z,61.41
2023-05-01T07:20:59.642Z,61.06
2023-05-01T07:23:27.614Z,61.07
2023-05-01T07:25:55.926Z,60.30
2023-05-01T07:28:23.754Z,60.54
2023-05-01T07:30:51.641Z,60.44
2023-05-01T07:33:19.593Z,59.96
2023-05-01T07:35:48.940Z,59.94
2023-05-01T07:38:17.037Z,59.70
2023-05-01T07:40:45.070Z,59.12
2023-05-01T07:43:13.045Z,59.01
2023-05-01T07:45:42.787Z,59.53
2023-05-01T07:48:11.169Z,58.19
2023-05-01T07:50:40.744Z,58.48
2023-05-01T07:53:10.109Z,58.49
2023-05-01T07:55:38.552Z,57.79
2023-05-01T07:58:06.366Z,57.05
2023-05-01T08:00:34.535Z,57.51
2023-05-01T08:03:02.635Z,56.76
2023-05-01T08:05:31.624Z,57.05
2023-05-01T08:07:59.484Z,56.86
2023-05-01T08:10:28.826Z,57.14
2023-05-01T08:12:56.583Z,56.77
2023-05-01T08:15:25.188Z,55.67
2023-05-01T08:17:53.106Z,55.35
2023-05-01T08:20:21.015Z,56.46
2023-05-01T08:22:48.820Z,55.75
2023-05-01T08:25:16.822Z,54.09
2023-05-01T08:27:45.961Z,55.85
2023-05-01T08:30:14.101Z,55.31
2023-05-01T08:32:42.000Z,55.17
2023-05-01T08:35:09.989Z,54.83
2023-05-01T08:37:38.101Z,55.64
2023-05-01T08:40:08.765Z,56.08
2023-05-01T08:42:37.363Z,56.12
2023-05-01T08:45:09.545Z,55.05
2023-05-01T08:47:38.837Z,54.29
2023-05-01T08:50:12.292Z,54.30
2023-05-01T08:52:42.199Z,54.18
2023-05-01T08:55:15.080Z,53.81
2023-05-01T08:57:46.796Z,53.42
2023-05-01T09:00:20.445Z,53.00
2023-05-01T09:02:50.702Z,54.42
2023-05-01T09:05:19.800Z,52.22
2023-05-01T09:07:48.466Z,51.76
2023-05-01T09:10:18.302Z,51.47
2023-05-01T09:12:51.674Z,51.55
2023-05-01T09:15:21.679Z,49.15
2023-05-01T09:17:49.633Z,48.48
2023-05-01T09:20:19.610Z,47.55
2023-05-01T09:22:48.517Z,48.14
2023-05-01T09:25:16.313Z,46.98
2023-05-01T09:27:45.219Z,44.46
2023-05-01T09:30:32.758Z,44.88
2023-05-01T09:33:08.139Z,42.39
2023-05-01T09:35:53.143Z,41.67
2023-05-01T09:38:22.860Z,41.78
2023-05-01T09:40:51.518Z,39.78
2023-05-01T09:43:27.662Z,40.03
2023-05-01T09:46:06.792Z,38.19
2023-05-01T09:48:36.183Z,38.63
2023-05-01T09:51:22.037Z,39.59
2023-05-01T09:53:50.424Z,39.63
2023-05-01T09:56:18.536Z,39.79
2023-05-01T09:58:46.716Z,38.53
2023-05-01T10:01:16.312Z,42.02
2023-05-01T10:03:45.456Z,39.71
2023-05-01T10:06:13.517Z,39.66
2023-05-01T10:08:49.344Z,38.08
2023-05-01T10:11:17.960Z,38.39
2023-05-01T10:13:45.857Z,38.27
2023-05-01T10:16:31.422Z,37.43
2023-05-01T10:19:02.370Z,37.71
2023-05-01T10:21:33.135Z,37.38
2023-05-01T10:24:02.751Z,38.83
2023-05-01T10:26:30.812Z,36.11
2023-05-01T10:28:59.805Z,37.31
2023-05-01T10:31:28.766Z,39.06
2023-05-01T10:33:58.338Z,38.56
2023-05-01T10:36:28.778Z,38.79
2023-05-01T10:38:56.766Z,36.99
2023-05-01T10:42:03.581Z,38.09
2023-05-01T10:44:32.316Z,36.97
2023-05-01T10:47:00.237Z,35.93
2023-05-01T10:50:07.066Z,34.04
2023-05-01T10:53:08.163Z,31.35
2023-05-01T10:55:36.639Z,34.78
2023-05-01T10:58:04.802Z,36.59
2023-05-01T11:00:34.144Z,36.96
2023-05-01T11:03:35.982Z,36.90
2023-05-01T11:06:09.125Z,36.67
2023-05-01T11:08:38.791Z,36.07
2023-05-01T11:11:44.128Z,38.00
2023-05-01T11:14:12.033Z,37.35
2023-05-01T11:16:46.354Z,37.86
2023-05-01T11:19:50.308Z,37.90
2023-05-01T11:22:20.092Z,39.21
2023-05-01T11:24:48.230Z,39.37
2023-05-01T11:27:16.868Z,38.92
2023-05-01T11:29:49.556Z,38.93
2023-05-01T11:32:25.478Z,39.98
2023-05-01T11:34:53.772Z,38.45
2023-05-01T11:37:40.842Z,37.51
2023-05-01T11:40:21.364Z,38.02
2023-05-01T11:42:49.876Z,38.19
2023-05-01T11:45:18.284Z,37.47
2023-05-01T11:47:46.290Z,37.66
2023-05-01T11:50:14.370Z,35.95
2023-05-01T11:52:49.261Z,35.54
2023-05-01T11:55:17.618Z,36.13
2023-05-01T11:57:49.955Z,34.86
2023-05-01T12:00:28.734Z,35.80
2023-05-01T12:02:58.598Z,36.07
2023-05-01T12:05:27.559Z,36.88
2023-05-01T12:08:11.021Z,36.22
2023-05-01T12:10:40.995Z,34.79
2023-05-01T12:13:10.681Z,33.29
2023-05-01T12:15:41.564Z,34.19
2023-05-01T12:18:09.841Z,33.41
2023-05-01T12:20:42.068Z,35.33
2023-05-01T12:23:12.484Z,33.78
2023-05-01T12:28:14.504Z,31.96
2023-05-01T12:30:42.889Z,32.63
2023-05-01T12:33:12.892Z,31.69
2023-05-01T12:35:41.895Z,34.38
2023-05-01T12:38:16.603Z,32.93
2023-05-01T12:40:52.615Z,33.83
2023-05-01T12:43:21.000Z,34.20
2023-05-01T12:45:54.050Z,35.26
2023-05-01T12:48:22.322Z,36.15
2023-05-01T12:50:54.804Z,34.65
2023-05-01T12:53:25.832Z,31.60
2023-05-01T12:55:55.498Z,33.88
2023-05-01T12:58:24.150Z,35.41
2023-05-01T13:00:53.748Z,33.38
2023-05-01T13:03:25.048Z,35.56
2023-05-01T13:05:54.814Z,35.54
2023-05-01T13:08:30.086Z,33.78
2023-05-01T13:10:59.198Z,34.22
2023-05-01T13:13:28.965Z,35.35
2023-05-01T13:16:06.079Z,34.99
2023-05-01T13:18:35.058Z,34.21
2023-05-01T13:21:10.799Z,34.80
2023-05-01T13:23:40.256Z,35.26
2023-05-01T13:26:09.136Z,34.35
2023-05-01T13:28:38.556Z,35.28
2023-05-01T13:31:13.959Z,34.79
2023-05-01T13:33:43.023Z,34.05
2023-05-01T13:36:24.441Z,29.33
2023-05-01T13:38:57.134Z,29.65
2023-05-01T13:41:27.730Z,30.17
2023-05-01T13:43:57.439Z,32.71
2023-05-01T13:46:27.109Z,32.98
2023-05-01T13:48:55.226Z,34.18
2023-05-01T13:51:24.573Z,34.97
2023-05-01T13:53:53.673Z,34.84
2023-05-01T13:56:23.474Z,36.02
2023-05-01T13:58:51.422Z,32.99
2023-05-01T14:01:21.325Z,32.93
2023-05-01T14:03:50.586Z,33.36
2023-05-01T14:06:20.994Z,32.73
2023-05-01T14:08:49.974Z,34.04
2023-05-01T14:11:18.122Z,33.82
2023-05-01T14:13:49.595Z,34.27
2023-05-01T14:16:24.561Z,35.86
2023-05-01T14:18:56.771Z,36.56
2023-05-01T14:21:27.317Z,37.24
2023-05-01T14:23:56.622Z,35.88
2023-05-01T14:26:24.886Z,34.11
2023-05-01T14:28:54.530Z,35.42
2023-05-01T14:31:27.166Z,37.00
2023-05-01T14:33:58.493Z,39.24
2023-05-01T14:36:28.255Z,41.97
2023-05-01T14:38:57.757Z,47.85
2023-05-01T14:41:25.718Z,51.31
2023-05-01T14:43:54.932Z,54.58
2023-05-01T14:46:29.918Z,56.05
2023-05-01T14:48:58.209Z,56.96
2023-05-01T14:51:27.294Z,57.82
2023-05-01T14:53:55.978Z,59.11
2023-05-01T14:56:24.137Z,58.55
2023-05-01T14:58:52.047Z,59.01
2023-05-01T15:01:21.865Z,58.37
2023-05-01T15:03:50.019Z,58.68
2023-05-01T15:06:18.107Z,59.73
2023-05-01T15:08:46.770Z,60.53
2023-05-01T15:11:15.147Z,61.62
2023-05-01T15:13:44.308Z,61.55
2023-05-01T15:16:13.266Z,62.31
2023-05-01T15:18:42.599Z,62.31
2023-05-01T15:21:10.842Z,62.32
2023-05-01T15:23:38.780Z,63.77
2023-05-01T15:26:06.734Z,65.13
2023-05-01T15:28:34.575Z,66.09
2023-05-01T15:31:02.567Z,67.38
2023-05-01T15:33:30.615Z,69.12
2023-05-01T15:35:59.997Z,70.87
2023-05-01T15:38:28.295Z,72.82
2023-05-01T15:40:56.303Z,74.43
2023-05-01T15:43:24.370Z,75.54
2023-05-01T15:45:52.876Z,77.72
2023-05-01T15:48:21.043Z,78.36
2023-05-01T15:50:49.833Z,81.70
2023-05-01T15:53:20.916Z,80.83
2023-05-01T15:55:48.914Z,82.02
2023-05-01T15:58:17.071Z,84.41
2023-05-01T16:00:48.197Z,85.62
2023-05-01T16:03:17.728Z,85.60
2023-05-01T16:05:47.469Z,86.73
2023-05-01T16:08:15.803Z,86.20
2023-05-01T16:10:45.313Z,85.68
2023-05-01T16:13:13.239Z,87.03
2023-05-01T16:15:41.017Z,88.18
2023-05-01T16:18:09.576Z,88.34
2023-05-01T16:20:43.657Z,87.79
2023-05-01T16:23:12.406Z,88.85
2023-05-01T16:25:43.195Z,89.34
2023-05-01T16:28:13.067Z,89.99
2023-05-01T16:30:42.566Z,88.58
2023-05-01T16:33:18.514Z,89.29
2023-05-01T16:35:48.686Z,88.89
2023-05-01T16:38:16.912Z,91.29
2023-05-01T16:40:45.247Z,88.65
2023-05-01T16:43:14.559Z,90.84
2023-05-01T16:45:42.562Z,90.51
2023-05-01T16:48:10.610Z,92.09
2023-05-01T16:50:42.004Z,93.25
2023-05-01T16:53:09.823Z,93.52
2023-05-01T16:55:37.661Z,93.35
2023-05-01T16:58:06.814Z,92.65
2023-05-01T17:00:36.271Z,92.76
2023-05-01T17:03:04.261Z,91.29
2023-05-01T17:05:32.259Z,91.68
2023-05-01T17:08:00.232Z,92.38
2023-05-01T17:10:28.160Z,92.64
2023-05-01T17:12:56.437Z,94.52
2023-05-01T17:15:24.407Z,92.94
2023-05-01T17:17:53.880Z,92.47
2023-05-01T17:20:21.908Z,93.71
2023-05-01T17:22:49.818Z,92.92
2023-05-01T17:25:17.734Z,94.40
2023-05-01T17:27:45.633Z,92.31
2023-05-01T17:30:13.979Z,91.71
2023-05-01T17:32:41.976Z,90.28
2023-05-01T17:35:11.536Z,89.50
2023-05-01T17:37:40.493Z,87.82
2023-05-01T17:40:11.025Z,88.79
2023-05-01T17:42:39.030Z,87.29
2023-05-01T17:45:10.009Z,89.57
2023-05-01T17:47:41.498Z,87.88
2023-05-01T17:50:12.886Z,87.37
2023-05-01T17:52:41.482Z,88.51
2023-05-01T17:55:10.384Z,88.22
2023-05-01T17:57:38.441Z,88.51
2023-05-01T18:00:07.889Z,89.54
2023-05-01T18:02:44.355Z,90.59
2023-05-01T18:05:13.914Z,90.92
2023-05-01T18:07:42.234Z,90.62
2023-05-01T18:10:11.337Z,89.72
2023-05-01T18:12:39.421Z,91.59
2023-05-01T18:15:08.033Z,91.55
2023-05-01T18:17:36.145Z,93.94
2023-05-01T18:20:04.190Z,93.12
2023-05-01T18:22:34.526Z,91.75
2023-05-01T18:25:02.745Z,91.86
2023-05-01T18:27:30.583Z,92.35
2023-05-01T18:29:58.894Z,91.75
2023-05-01T18:32:39.240Z,92.61
2023-05-01T18:35:14.652Z,91.91
2023-05-01T18:37:44.318Z,92.29
2023-05-01T18:40:13.271Z,91.61
2023-05-01T18:42:42.281Z,93.94
2023-05-01T18:45:10.984Z,92.51
2023-05-01T18:47:38.960Z,92.88
2023-05-01T18:50:08.310Z,90.21
2023-05-01T18:52:37.052Z,89.64
2023-05-01T18:55:07.454Z,90.68
2023-05-01T18:57:36.017Z,89.38
2023-05-01T19:00:04.275Z,89.52
2023-05-01T19:02:32.167Z,89.54
2023-05-01T19:05:00.052Z,89.27
2023-05-01T19:07:27.916Z,90.20
2023-05-01T19:09:56.068Z,89.96
2023-05-01T19:12:25.193Z,90.31
2023-05-01T19:14:53.077Z,90.50
2023-05-01T19:17:21.400Z,90.89
2023-05-01T19:19:49.735Z,90.82
2023-05-01T19:22:17.637Z,91.03
2023-05-01T19:24:45.799Z,90.71
2023-05-01T19:27:13.866Z,90.89
2023-05-01T19:29:44.612Z,91.69
2023-05-01T19:32:12.755Z,92.20
2023-05-01T19:34:40.998Z,92.27
2023-05-01T19:37:09.365Z,93.16
2023-05-01T19:39:37.439Z,94.17
2023-05-01T19:42:05.441Z,93.82
2023-05-01T19:44:33.493Z,93.19
2023-05-01T19:47:03.106Z,93.84
2023-05-01T19:49:31.053Z,93.42
2023-05-01T19:51:59.401Z,94.64
2023-05-01T19:54:27.491Z,94.57
2023-05-01T19:56:56.086Z,95.87
2023-05-01T19:59:24.171Z,95.88
2023-05-01T20:01:52.112Z,95.50
2023-05-01T20:04:22.959Z,95.40
2023-05-01T20:06:51.298Z,95.08
2023-05-01T20:09:19.280Z,94.69
2023-05-01T20:11:47.212Z,94.64
2023-05-01T20:14:15.055Z,94.81
2023-05-01T20:16:43.320Z,95.46
2023-05-01T20:19:11.347Z,95.60
2023-05-01T20:21:40.548Z,95.56
2023-05-01T20:24:08.423Z,95.81
2023-05-01T20:26:36.254Z,96.45
2023-05-01T20:29:04.157Z,95.98
2023-05-01T20:31:33.894Z,96.30
2023-05-01T20:34:01.958Z,97.34
2023-05-01T20:36:29.800Z,98.24
2023-05-01T20:39:01.011Z,98.43
2023-05-01T20:41:29.328Z,98.51
2023-05-01T20:44:02.331Z,98.05
2023-05-01T20:46:30.354Z,98.16
2023-05-01T20:48:58.308Z,98.08
2023-05-01T20:51:27.309Z,98.65
2023-05-01T20:53:55.772Z,98.59
2023-05-01T20:56:25.243Z,98.46
2023-05-01T20:58:53.117Z,98.15
2023-05-01T21:01:21.004Z,98.77
2023-05-01T21:03:49.117Z,99.99
2023-05-01T21:06:17.098Z,100.00
2023-05-01T21:08:45.007Z,100.00
2023-05-01T21:11:12.850Z,100.00
2023-05-01T21:13:42.087Z,100.00
2023-05-01T21:16:14.647Z,100.00
2023-05-01T21:18:43.268Z,100.00
2023-05-01T21:21:11.398Z,100.00
2023-05-01T21:23:43.610Z,100.00
2023-05-01T21:26:11.933Z,100.00
2023-05-01T21:28:40.070Z,100.00
2023-05-01T21:31:11.738Z,100.00
2023-05-01T21:33:40.056Z,100.00
2023-05-01T21:36:08.153Z,100.00
2023-05-01T21:38:36.285Z,100.00
2023-05-01T21:41:04.285Z,100.00
2023-05-01T21:43:33.716Z,100.00
2023-05-01T21:46:01.739Z,100.00
2023-05-01T21:48:34.077Z,100.00
2023-05-01T21:51:02.104Z,100.00
2023-05-01T21:53:30.111Z,100.00
2023-05-01T21:55:57.924Z,100.00
2023-05-01T21:58:26.048Z,100.00
2023-05-01T22:00:53.911Z,100.00
2023-05-01T22:03:24.579Z,100.00
2023-05-01T22:05:54.032Z,100.00
2023-05-01T22:08:22.784Z,100.00
2023-05-01T22:10:50.618Z,100.00
2023-05-01T22:13:18.365Z,100.00
2023-05-01T22:15:48.664Z,100.00
2023-05-01T22:18:19.444Z,100.00
2023-05-01T22:20:47.461Z,100.00
2023-05-01T22:23:16.609Z,100.00
2023-05-01T22:25:44.377Z,100.00
2023-05-01T22:28:12.173Z,100.00
2023-05-01T22:30:40.021Z,100.00
2023-05-01T22:33:07.850Z,100.00
2023-05-01T22:35:35.677Z,100.00
2023-05-01T22:38:03.429Z,100.00
2023-05-01T22:40:32.622Z,100.00
2023-05-01T22:43:00.657Z,100.00
2023-05-01T22:45:28.502Z,100.00
2023-05-01T22:47:56.364Z,100.00
2023-05-01T22:50:24.256Z,100.00
2023-05-01T22:52:52.292Z,100.00
2023-05-01T22:55:20.160Z,100.00
2023-05-01T22:57:49.298Z,100.00
2023-05-01T23:00:17.203Z,100.00
2023-05-01T23:02:45.180Z,100.00
2023-05-01T23:05:13.120Z,100.00
2023-05-01T23:07:40.902Z,100.00
2023-05-01T23:10:09.575Z,100.00
2023-05-01T23:12:41.739Z,100.00
2023-05-01T23:15:13.496Z,100.00
2023-05-01T23:17:41.533Z,100.00
2023-05-01T23:20:13.678Z,100.00
2023-05-01T23:22:41.577Z,100.00
2023-05-01T23:25:14.308Z,100.00
2023-05-01T23:27:43.019Z,100.00
2023-05-01T23:30:14.122Z,100.00
2023-05-01T23:32:41.989Z,100.00
2023-05-01T23:35:14.682Z,100.00
2023-05-01T23:37:42.901Z,100.00
2023-05-01T23:40:11.314Z,100.00
2023-05-01T23:42:40.387Z,100.00
2023-05-01T23:45:09.486Z,100.00
2023-05-01T23:47:39.558Z,100.00
2023-05-01T23:50:08.583Z,100.00
2023-05-01T23:52:36.681Z,100.00
2023-05-01T23:55:04.734Z,100.00
2023-05-01T23:57:32.555Z,100.00
